sensor_id;sensor_type;location;lat;lon;timestamp;temperature;humidity
66871;DHT22;53780;44.998;9.926;2022-12-18T00:02:03;7.08;86.68
66871;DHT22;53780;44.998;9.926;2022-12-18T00:05:07;7.12;86.54
66871;DHT22;53780;44.998;9.926;2022-12-18T00:08:11;7.11;86.47
66871;DHT22;53780;44.998;9.926;2022-12-18T00:11:17;7.14;86.44
66871;DHT22;53780;44.998;9.926;2022-12-18T00:14:21;7.18;86.50
66871;DHT22;53780;44.998;9.926;2022-12-18T00:17:25;7.15;86.60
66871;DHT22;53780;44.998;9.926;2022-12-18T00:20:29;7.16;86.84
66871;DHT22;53780;44.998;9.926;2022-12-18T00:23:34;7.11;86.88
66871;DHT22;53780;44.998;9.926;2022-12-18T00:26:39;7.09;86.88
66871;DHT22;53780;44.998;9.926;2022-12-18T00:29:43;7.12;86.83
66871;DHT22;53780;44.998;9.926;2022-12-18T00:32:47;7.11;86.58
66871;DHT22;53780;44.998;9.926;2022-12-18T00:35:51;7.11;86.42
66871;DHT22;53780;44.998;9.926;2022-12-18T00:38:56;7.09;86.32
66871;DHT22;53780;44.998;9.926;2022-12-18T00:42:01;7.11;86.13
66871;DHT22;53780;44.998;9.926;2022-12-18T00:45:30;7.09;85.99
66871;DHT22;53780;44.998;9.926;2022-12-18T00:48:35;7.14;86.13
66871;DHT22;53780;44.998;9.926;2022-12-18T00:51:38;7.15;86.19
66871;DHT22;53780;44.998;9.926;2022-12-18T00:54:42;7.08;85.98
66871;DHT22;53780;44.998;9.926;2022-12-18T00:57:46;7.07;86.12
66871;DHT22;53780;44.998;9.926;2022-12-18T01:00:50;7.08;86.21
66871;DHT22;53780;44.998;9.926;2022-12-18T01:03:53;7.11;86.17
66871;DHT22;53780;44.998;9.926;2022-12-18T01:06:57;7.04;86.24
66871;DHT22;53780;44.998;9.926;2022-12-18T01:10:01;7.07;86.57
66871;DHT22;53780;44.998;9.926;2022-12-18T01:13:05;7.09;86.84
66871;DHT22;53780;44.998;9.926;2022-12-18T01:16:11;7.12;86.85
66871;DHT22;53780;44.998;9.926;2022-12-18T01:19:16;7.11;87.03
66871;DHT22;53780;44.998;9.926;2022-12-18T01:22:19;7.11;87.10
66871;DHT22;53780;44.998;9.926;2022-12-18T01:25:23;7.12;87.39
66871;DHT22;53780;44.998;9.926;2022-12-18T01:28:28;7.12;87.72
66871;DHT22;53780;44.998;9.926;2022-12-18T01:31:33;7.15;87.79
66871;DHT22;53780;44.998;9.926;2022-12-18T01:34:39;7.14;87.91
66871;DHT22;53780;44.998;9.926;2022-12-18T01:37:43;7.11;88.03
66871;DHT22;53780;44.998;9.926;2022-12-18T01:40:46;7.14;87.96
66871;DHT22;53780;44.998;9.926;2022-12-18T01:43:54;7.14;87.58
66871;DHT22;53780;44.998;9.926;2022-12-18T01:46:59;7.11;87.34
66871;DHT22;53780;44.998;9.926;2022-12-18T01:53:21;7.07;86.66
66871;DHT22;53780;44.998;9.926;2022-12-18T01:56:25;7.04;86.48
66871;DHT22;53780;44.998;9.926;2022-12-18T01:59:31;7.08;86.33
66871;DHT22;53780;44.998;9.926;2022-12-18T02:02:36;7.11;86.38
66871;DHT22;53780;44.998;9.926;2022-12-18T02:09:19;7.19;86.28
66871;DHT22;53780;44.998;9.926;2022-12-18T02:12:48;7.22;86.16
66871;DHT22;53780;44.998;9.926;2022-12-18T02:16:11;7.25;86.50
66871;DHT22;53780;44.998;9.926;2022-12-18T02:26:41;7.21;87.07
66871;DHT22;53780;44.998;9.926;2022-12-18T02:29:50;7.23;87.18
66871;DHT22;53780;44.998;9.926;2022-12-18T02:32:55;7.22;87.27
66871;DHT22;53780;44.998;9.926;2022-12-18T02:36:01;7.23;87.44
66871;DHT22;53780;44.998;9.926;2022-12-18T02:39:10;7.25;87.53
66871;DHT22;53780;44.998;9.926;2022-12-18T02:42:19;7.25;87.50
66871;DHT22;53780;44.998;9.926;2022-12-18T02:45:24;7.29;87.30
66871;DHT22;53780;44.998;9.926;2022-12-18T02:48:33;7.28;87.14
66871;DHT22;53780;44.998;9.926;2022-12-18T03:02:00;7.36;86.37
66871;DHT22;53780;44.998;9.926;2022-12-18T03:05:30;7.29;86.14
66871;DHT22;53780;44.998;9.926;2022-12-18T03:08:41;7.25;86.32
66871;DHT22;53780;44.998;9.926;2022-12-18T03:11:55;7.26;86.65
66871;DHT22;53780;44.998;9.926;2022-12-18T03:15:23;7.29;86.73
66871;DHT22;53780;44.998;9.926;2022-12-18T03:21:42;7.26;86.61
66871;DHT22;53780;44.998;9.926;2022-12-18T03:24:48;7.26;86.65
66871;DHT22;53780;44.998;9.926;2022-12-18T03:27:55;7.32;86.46
66871;DHT22;53780;44.998;9.926;2022-12-18T03:31:01;7.30;86.12
66871;DHT22;53780;44.998;9.926;2022-12-18T03:34:14;7.29;86.02
66871;DHT22;53780;44.998;9.926;2022-12-18T03:37:22;7.29;86.25
66871;DHT22;53780;44.998;9.926;2022-12-18T03:40:32;7.29;86.35
66871;DHT22;53780;44.998;9.926;2022-12-18T03:47:14;7.26;86.75
66871;DHT22;53780;44.998;9.926;2022-12-18T03:50:29;7.28;86.70
66871;DHT22;53780;44.998;9.926;2022-12-18T03:53:58;7.33;86.94
66871;DHT22;53780;44.998;9.926;2022-12-18T03:57:19;7.35;86.78
66871;DHT22;53780;44.998;9.926;2022-12-18T04:00:25;7.33;86.68
66871;DHT22;53780;44.998;9.926;2022-12-18T04:03:41;7.36;86.83
66871;DHT22;53780;44.998;9.926;2022-12-18T04:06:47;7.38;86.98
66871;DHT22;53780;44.998;9.926;2022-12-18T04:09:54;7.45;86.87
66871;DHT22;53780;44.998;9.926;2022-12-18T04:13:01;7.43;86.82
66871;DHT22;53780;44.998;9.926;2022-12-18T04:16:06;7.45;86.83
66871;DHT22;53780;44.998;9.926;2022-12-18T04:19:09;7.45;86.81
66871;DHT22;53780;44.998;9.926;2022-12-18T04:22:17;7.47;86.87
66871;DHT22;53780;44.998;9.926;2022-12-18T04:25:24;7.45;86.86
66871;DHT22;53780;44.998;9.926;2022-12-18T04:28:41;7.45;86.76
66871;DHT22;53780;44.998;9.926;2022-12-18T04:31:46;7.36;86.54
66871;DHT22;53780;44.998;9.926;2022-12-18T04:34:50;7.30;86.81
66871;DHT22;53780;44.998;9.926;2022-12-18T04:37:54;7.28;86.72
66871;DHT22;53780;44.998;9.926;2022-12-18T04:40:58;7.32;86.37
66871;DHT22;53780;44.998;9.926;2022-12-18T04:44:04;7.35;86.00
66871;DHT22;53780;44.998;9.926;2022-12-18T04:47:08;7.32;85.72
66871;DHT22;53780;44.998;9.926;2022-12-18T04:50:12;7.33;85.69
66871;DHT22;53780;44.998;9.926;2022-12-18T04:53:16;7.29;85.57
66871;DHT22;53780;44.998;9.926;2022-12-18T04:56:20;7.23;85.56
66871;DHT22;53780;44.998;9.926;2022-12-18T04:59:23;7.22;85.88
66871;DHT22;53780;44.998;9.926;2022-12-18T05:02:27;7.28;85.83
66871;DHT22;53780;44.998;9.926;2022-12-18T05:05:31;7.30;85.64
66871;DHT22;53780;44.998;9.926;2022-12-18T05:08:35;7.28;85.40
66871;DHT22;53780;44.998;9.926;2022-12-18T05:11:39;7.29;85.38
66871;DHT22;53780;44.998;9.926;2022-12-18T05:14:42;7.33;85.08
66871;DHT22;53780;44.998;9.926;2022-12-18T05:17:46;7.32;84.75
66871;DHT22;53780;44.998;9.926;2022-12-18T05:20:51;7.35;84.78
66871;DHT22;53780;44.998;9.926;2022-12-18T05:23:55;7.36;84.69
66871;DHT22;53780;44.998;9.926;2022-12-18T05:26:59;7.35;84.42
66871;DHT22;53780;44.998;9.926;2022-12-18T05:30:03;7.29;84.36
66871;DHT22;53780;44.998;9.926;2022-12-18T05:33:07;7.28;84.57
66871;DHT22;53780;44.998;9.926;2022-12-18T05:36:11;7.26;84.52
66871;DHT22;53780;44.998;9.926;2022-12-18T05:39:15;7.28;84.46
66871;DHT22;53780;44.998;9.926;2022-12-18T05:42:19;7.23;84.50
66871;DHT22;53780;44.998;9.926;2022-12-18T05:45:23;7.23;84.35
66871;DHT22;53780;44.998;9.926;2022-12-18T05:48:26;7.18;84.24
66871;DHT22;53780;44.998;9.926;2022-12-18T05:51:30;7.15;84.13
66871;DHT22;53780;44.998;9.926;2022-12-18T05:54:35;7.15;84.29
66871;DHT22;53780;44.998;9.926;2022-12-18T05:57:39;7.16;84.13
66871;DHT22;53780;44.998;9.926;2022-12-18T06:00:44;7.16;84.10
66871;DHT22;53780;44.998;9.926;2022-12-18T06:03:48;7.15;84.12
66871;DHT22;53780;44.998;9.926;2022-12-18T06:06:52;7.16;83.98
66871;DHT22;53780;44.998;9.926;2022-12-18T06:09:56;7.19;84.01
66871;DHT22;53780;44.998;9.926;2022-12-18T06:13:00;7.19;83.60
66871;DHT22;53780;44.998;9.926;2022-12-18T06:16:05;7.22;83.54
66871;DHT22;53780;44.998;9.926;2022-12-18T06:19:15;7.22;83.53
66871;DHT22;53780;44.998;9.926;2022-12-18T06:22:20;7.18;83.61
66871;DHT22;53780;44.998;9.926;2022-12-18T06:25:23;7.18;83.59
66871;DHT22;53780;44.998;9.926;2022-12-18T06:28:27;7.19;83.31
66871;DHT22;53780;44.998;9.926;2022-12-18T06:31:31;7.22;83.19
66871;DHT22;53780;44.998;9.926;2022-12-18T06:34:37;7.25;82.92
66871;DHT22;53780;44.998;9.926;2022-12-18T06:37:41;7.23;82.63
66871;DHT22;53780;44.998;9.926;2022-12-18T06:40:45;7.22;82.56
66871;DHT22;53780;44.998;9.926;2022-12-18T06:43:49;7.21;82.71
66871;DHT22;53780;44.998;9.926;2022-12-18T06:46:53;7.14;82.92
66871;DHT22;53780;44.998;9.926;2022-12-18T06:49:56;7.14;82.88
66871;DHT22;53780;44.998;9.926;2022-12-18T06:53:00;7.12;82.92
66871;DHT22;53780;44.998;9.926;2022-12-18T06:56:06;7.12;83.23
66871;DHT22;53780;44.998;9.926;2022-12-18T06:59:10;7.14;83.29
66871;DHT22;53780;44.998;9.926;2022-12-18T07:02:14;7.18;83.16
66871;DHT22;53780;44.998;9.926;2022-12-18T07:05:17;7.11;83.02
66871;DHT22;53780;44.998;9.926;2022-12-18T07:08:21;7.07;83.00
66871;DHT22;53780;44.998;9.926;2022-12-18T07:11:25;6.97;83.26
66871;DHT22;53780;44.998;9.926;2022-12-18T07:14:29;7.04;83.38
66871;DHT22;53780;44.998;9.926;2022-12-18T07:17:32;7.11;83.24
66871;DHT22;53780;44.998;9.926;2022-12-18T07:20:36;7.08;83.32
66871;DHT22;53780;44.998;9.926;2022-12-18T07:23:41;7.11;83.20
66871;DHT22;53780;44.998;9.926;2022-12-18T07:26:48;7.14;83.31
66871;DHT22;53780;44.998;9.926;2022-12-18T07:29:52;7.18;83.49
66871;DHT22;53780;44.998;9.926;2022-12-18T07:32:55;7.18;83.36
66871;DHT22;53780;44.998;9.926;2022-12-18T07:36:03;7.21;83.40
66871;DHT22;53780;44.998;9.926;2022-12-18T07:39:08;7.12;83.39
66871;DHT22;53780;44.998;9.926;2022-12-18T07:42:11;7.16;83.43
66871;DHT22;53780;44.998;9.926;2022-12-18T07:45:34;7.22;83.42
66871;DHT22;53780;44.998;9.926;2022-12-18T07:48:37;7.25;83.61
66871;DHT22;53780;44.998;9.926;2022-12-18T07:51:41;7.32;83.25
66871;DHT22;53780;44.998;9.926;2022-12-18T07:54:45;7.30;82.97
66871;DHT22;53780;44.998;9.926;2022-12-18T07:57:48;7.33;82.80
66871;DHT22;53780;44.998;9.926;2022-12-18T08:00:52;7.38;82.82
66871;DHT22;53780;44.998;9.926;2022-12-18T08:03:57;7.40;82.50
66871;DHT22;53780;44.998;9.926;2022-12-18T08:07:00;7.43;82.70
66871;DHT22;53780;44.998;9.926;2022-12-18T08:10:05;7.45;82.00
66871;DHT22;53780;44.998;9.926;2022-12-18T08:13:09;7.47;82.21
66871;DHT22;53780;44.998;9.926;2022-12-18T08:16:13;7.52;82.40
66871;DHT22;53780;44.998;9.926;2022-12-18T08:19:17;7.57;81.92
66871;DHT22;53780;44.998;9.926;2022-12-18T08:22:21;7.59;81.80
66871;DHT22;53780;44.998;9.926;2022-12-18T08:25:25;7.62;81.41
66871;DHT22;53780;44.998;9.926;2022-12-18T08:28:29;7.69;81.81
66871;DHT22;53780;44.998;9.926;2022-12-18T08:31:33;7.70;81.53
66871;DHT22;53780;44.998;9.926;2022-12-18T08:34:37;7.65;81.35
66871;DHT22;53780;44.998;9.926;2022-12-18T08:37:41;7.74;81.20
66871;DHT22;53780;44.998;9.926;2022-12-18T08:40:45;7.71;80.50
66871;DHT22;53780;44.998;9.926;2022-12-18T08:43:49;7.80;80.22
66871;DHT22;53780;44.998;9.926;2022-12-18T08:47:12;7.87;80.21
66871;DHT22;53780;44.998;9.926;2022-12-18T08:50:15;7.95;79.73
66871;DHT22;53780;44.998;9.926;2022-12-18T08:53:19;7.98;79.38
66871;DHT22;53780;44.998;9.926;2022-12-18T08:56:23;7.98;79.36
66871;DHT22;53780;44.998;9.926;2022-12-18T08:59:28;8.14;79.39
66871;DHT22;53780;44.998;9.926;2022-12-18T09:02:32;8.16;80.13
66871;DHT22;53780;44.998;9.926;2022-12-18T09:05:36;8.11;80.52
66871;DHT22;53780;44.998;9.926;2022-12-18T09:08:40;8.14;80.00
66871;DHT22;53780;44.998;9.926;2022-12-18T09:11:44;8.29;79.78
66871;DHT22;53780;44.998;9.926;2022-12-18T09:14:47;8.21;80.00
66871;DHT22;53780;44.998;9.926;2022-12-18T09:17:51;8.20;80.60
66871;DHT22;53780;44.998;9.926;2022-12-18T09:20:56;8.21;80.47
66871;DHT22;53780;44.998;9.926;2022-12-18T09:24:00;8.16;80.63
66871;DHT22;53780;44.998;9.926;2022-12-18T09:27:04;8.28;80.41
66871;DHT22;53780;44.998;9.926;2022-12-18T09:30:08;8.28;80.18
66871;DHT22;53780;44.998;9.926;2022-12-18T09:33:12;8.25;80.36
66871;DHT22;53780;44.998;9.926;2022-12-18T09:36:18;8.31;79.78
66871;DHT22;53780;44.998;9.926;2022-12-18T09:39:22;8.38;79.87
66871;DHT22;53780;44.998;9.926;2022-12-18T09:42:25;8.39;79.52
66871;DHT22;53780;44.998;9.926;2022-12-18T09:45:52;8.52;79.81
66871;DHT22;53780;44.998;9.926;2022-12-18T09:49:01;8.50;79.33
66871;DHT22;53780;44.998;9.926;2022-12-18T09:55:33;8.35;80.42
66871;DHT22;53780;44.998;9.926;2022-12-18T09:58:42;8.35;80.47
66871;DHT22;53780;44.998;9.926;2022-12-18T10:01:48;8.35;80.74
66871;DHT22;53780;44.998;9.926;2022-12-18T10:05:04;8.41;80.28
66871;DHT22;53780;44.998;9.926;2022-12-18T10:08:16;8.46;80.19
66871;DHT22;53780;44.998;9.926;2022-12-18T10:11:46;8.48;79.75
66871;DHT22;53780;44.998;9.926;2022-12-18T10:14:53;8.46;79.91
66871;DHT22;53780;44.998;9.926;2022-12-18T10:22:01;8.32;79.07
66871;DHT22;53780;44.998;9.926;2022-12-18T10:25:51;8.41;79.39
66871;DHT22;53780;44.998;9.926;2022-12-18T10:28:32;8.46;78.15
66871;DHT22;53780;44.998;9.926;2022-12-18T10:31:36;8.48;78.24
66871;DHT22;53780;44.998;9.926;2022-12-18T10:34:40;8.39;78.89
66871;DHT22;53780;44.998;9.926;2022-12-18T10:41:25;8.39;79.75
66871;DHT22;53780;44.998;9.926;2022-12-18T10:44:30;8.32;79.21
66871;DHT22;53780;44.998;9.926;2022-12-18T10:47:34;8.42;79.24
66871;DHT22;53780;44.998;9.926;2022-12-18T10:50:39;8.56;79.33
66871;DHT22;53780;44.998;9.926;2022-12-18T10:53:52;8.64;78.46
66871;DHT22;53780;44.998;9.926;2022-12-18T10:57:17;8.59;77.24
66871;DHT22;53780;44.998;9.926;2022-12-18T11:00:28;8.56;78.22
66871;DHT22;53780;44.998;9.926;2022-12-18T11:03:47;8.53;79.01
66871;DHT22;53780;44.998;9.926;2022-12-18T11:07:04;8.48;79.19
66871;DHT22;53780;44.998;9.926;2022-12-18T11:10:17;8.53;78.83
66871;DHT22;53780;44.998;9.926;2022-12-18T11:13:23;8.60;79.13
66871;DHT22;53780;44.998;9.926;2022-12-18T11:16:30;8.63;78.66
66871;DHT22;53780;44.998;9.926;2022-12-18T11:19:39;8.64;78.58
66871;DHT22;53780;44.998;9.926;2022-12-18T11:22:58;8.61;78.80
66871;DHT22;53780;44.998;9.926;2022-12-18T11:26:04;8.63;78.77
66871;DHT22;53780;44.998;9.926;2022-12-18T11:29:16;8.57;78.85
66871;DHT22;53780;44.998;9.926;2022-12-18T11:38:55;8.79;78.93
66871;DHT22;53780;44.998;9.926;2022-12-18T11:45:30;8.81;79.06
66871;DHT22;53780;44.998;9.926;2022-12-18T11:48:48;8.83;78.55
66871;DHT22;53780;44.998;9.926;2022-12-18T11:52:19;8.90;78.90
66871;DHT22;53780;44.998;9.926;2022-12-18T11:58:39;8.96;78.55
66871;DHT22;53780;44.998;9.926;2022-12-18T12:01:51;9.01;77.75
66871;DHT22;53780;44.998;9.926;2022-12-18T12:36:16;9.34;76.11
66871;DHT22;53780;44.998;9.926;2022-12-18T12:39:27;9.29;76.57
66871;DHT22;53780;44.998;9.926;2022-12-18T12:42:41;9.25;76.41
66871;DHT22;53780;44.998;9.926;2022-12-18T12:46:07;9.32;76.16
66871;DHT22;53780;44.998;9.926;2022-12-18T12:49:18;9.25;76.09
66871;DHT22;53780;44.998;9.926;2022-12-18T12:52:35;9.32;76.27
66871;DHT22;53780;44.998;9.926;2022-12-18T12:55:41;9.38;74.98
66871;DHT22;53780;44.998;9.926;2022-12-18T13:05:53;9.26;75.88
66871;DHT22;53780;44.998;9.926;2022-12-18T13:08:59;9.21;75.35
66871;DHT22;53780;44.998;9.926;2022-12-18T13:12:08;9.18;75.58
66871;DHT22;53780;44.998;9.926;2022-12-18T13:18:48;9.29;75.43
66871;DHT22;53780;44.998;9.926;2022-12-18T13:21:55;9.36;74.69
66871;DHT22;53780;44.998;9.926;2022-12-18T13:24:59;9.35;75.39
66871;DHT22;53780;44.998;9.926;2022-12-18T13:34:45;9.26;75.54
66871;DHT22;53780;44.998;9.926;2022-12-18T13:37:53;9.18;75.63
66871;DHT22;53780;44.998;9.926;2022-12-18T13:41:03;9.18;75.83
66871;DHT22;53780;44.998;9.926;2022-12-18T13:47:36;9.19;76.11
66871;DHT22;53780;44.998;9.926;2022-12-18T13:50:42;9.19;75.93
66871;DHT22;53780;44.998;9.926;2022-12-18T13:56:50;9.10;76.57
66871;DHT22;53780;44.998;9.926;2022-12-18T13:59:55;9.04;76.29
66871;DHT22;53780;44.998;9.926;2022-12-18T14:03:00;9.01;76.32
66871;DHT22;53780;44.998;9.926;2022-12-18T14:06:07;9.00;76.69
66871;DHT22;53780;44.998;9.926;2022-12-18T14:09:18;9.11;76.66
66871;DHT22;53780;44.998;9.926;2022-12-18T14:12:26;9.14;76.46
66871;DHT22;53780;44.998;9.926;2022-12-18T14:15:50;9.17;76.01
66871;DHT22;53780;44.998;9.926;2022-12-18T14:18:56;9.17;76.00
66871;DHT22;53780;44.998;9.926;2022-12-18T14:22:01;9.17;76.25
66871;DHT22;53780;44.998;9.926;2022-12-18T14:25:29;9.17;76.65
66871;DHT22;53780;44.998;9.926;2022-12-18T14:28:43;9.12;76.41
66871;DHT22;53780;44.998;9.926;2022-12-18T14:32:24;9.10;76.30
66871;DHT22;53780;44.998;9.926;2022-12-18T14:35:28;9.07;76.18
66871;DHT22;53780;44.998;9.926;2022-12-18T14:38:35;9.07;75.52
66871;DHT22;53780;44.998;9.926;2022-12-18T14:41:39;9.07;75.24
66871;DHT22;53780;44.998;9.926;2022-12-18T14:44:42;9.07;74.39
66871;DHT22;53780;44.998;9.926;2022-12-18T14:47:46;9.07;74.95
66871;DHT22;53780;44.998;9.926;2022-12-18T14:50:59;9.07;74.88
66871;DHT22;53780;44.998;9.926;2022-12-18T14:54:06;9.03;75.36
66871;DHT22;53780;44.998;9.926;2022-12-18T14:57:35;9.04;76.10
66871;DHT22;53780;44.998;9.926;2022-12-18T15:00:41;9.08;76.48
66871;DHT22;53780;44.998;9.926;2022-12-18T15:03:46;9.07;76.12
66871;DHT22;53780;44.998;9.926;2022-12-18T15:07:03;9.04;75.79
66871;DHT22;53780;44.998;9.926;2022-12-18T15:10:17;9.00;75.41
66871;DHT22;53780;44.998;9.926;2022-12-18T15:13:23;9.01;75.55
66871;DHT22;53780;44.998;9.926;2022-12-18T15:16:28;9.00;75.33
66871;DHT22;53780;44.998;9.926;2022-12-18T15:19:42;8.91;76.03
66871;DHT22;53780;44.998;9.926;2022-12-18T15:22:47;8.88;76.22
66871;DHT22;53780;44.998;9.926;2022-12-18T15:29:00;8.84;76.76
66871;DHT22;53780;44.998;9.926;2022-12-18T15:32:18;8.79;76.98
66871;DHT22;53780;44.998;9.926;2022-12-18T15:35:24;8.74;76.98
66871;DHT22;53780;44.998;9.926;2022-12-18T15:38:29;8.70;77.06
66871;DHT22;53780;44.998;9.926;2022-12-18T15:41:34;8.67;77.29
66871;DHT22;53780;44.998;9.926;2022-12-18T15:44:38;8.67;77.63
66871;DHT22;53780;44.998;9.926;2022-12-18T15:47:43;8.70;77.71
66871;DHT22;53780;44.998;9.926;2022-12-18T15:50:47;8.67;78.04
66871;DHT22;53780;44.998;9.926;2022-12-18T15:53:54;8.60;77.93
66871;DHT22;53780;44.998;9.926;2022-12-18T15:56:59;8.56;78.50
66871;DHT22;53780;44.998;9.926;2022-12-18T16:00:21;8.59;78.79
66871;DHT22;53780;44.998;9.926;2022-12-18T16:03:25;8.56;78.82
66871;DHT22;53780;44.998;9.926;2022-12-18T16:06:29;8.56;78.93
66871;DHT22;53780;44.998;9.926;2022-12-18T16:09:33;8.59;78.95
66871;DHT22;53780;44.998;9.926;2022-12-18T16:12:38;8.59;78.87
66871;DHT22;53780;44.998;9.926;2022-12-18T16:15:46;8.54;78.01
66871;DHT22;53780;44.998;9.926;2022-12-18T16:18:49;8.54;77.28
66871;DHT22;53780;44.998;9.926;2022-12-18T16:21:54;8.53;76.94
66871;DHT22;53780;44.998;9.926;2022-12-18T16:25:00;8.52;77.06
66871;DHT22;53780;44.998;9.926;2022-12-18T16:28:04;8.43;77.38
66871;DHT22;53780;44.998;9.926;2022-12-18T16:31:08;8.39;77.97
66871;DHT22;53780;44.998;9.926;2022-12-18T16:34:29;8.41;78.39
66871;DHT22;53780;44.998;9.926;2022-12-18T16:37:34;8.41;78.64
66871;DHT22;53780;44.998;9.926;2022-12-18T16:40:38;8.38;78.80
66871;DHT22;53780;44.998;9.926;2022-12-18T16:44:02;8.42;78.90
66871;DHT22;53780;44.998;9.926;2022-12-18T16:47:07;8.45;78.96
66871;DHT22;53780;44.998;9.926;2022-12-18T16:50:11;8.41;79.49
66871;DHT22;53780;44.998;9.926;2022-12-18T16:53:15;8.41;79.82
66871;DHT22;53780;44.998;9.926;2022-12-18T16:56:19;8.42;79.42
66871;DHT22;53780;44.998;9.926;2022-12-18T16:59:23;8.42;79.16
66871;DHT22;53780;44.998;9.926;2022-12-18T17:02:29;8.39;79.41
66871;DHT22;53780;44.998;9.926;2022-12-18T17:05:33;8.41;79.57
66871;DHT22;53780;44.998;9.926;2022-12-18T17:08:36;8.39;79.64
66871;DHT22;53780;44.998;9.926;2022-12-18T17:11:41;8.39;79.71
66871;DHT22;53780;44.998;9.926;2022-12-18T17:14:45;8.42;79.22
66871;DHT22;53780;44.998;9.926;2022-12-18T17:17:49;8.42;79.45
66871;DHT22;53780;44.998;9.926;2022-12-18T17:21:00;8.42;79.39
66871;DHT22;53780;44.998;9.926;2022-12-18T17:24:05;8.38;79.64
66871;DHT22;53780;44.998;9.926;2022-12-18T17:27:09;8.46;79.43
66871;DHT22;53780;44.998;9.926;2022-12-18T17:30:13;8.42;79.17
66871;DHT22;53780;44.998;9.926;2022-12-18T17:33:17;8.39;79.08
66871;DHT22;53780;44.998;9.926;2022-12-18T17:36:23;8.32;79.16
66871;DHT22;53780;44.998;9.926;2022-12-18T17:39:27;8.28;79.30
66871;DHT22;53780;44.998;9.926;2022-12-18T17:42:33;8.29;79.42
66871;DHT22;53780;44.998;9.926;2022-12-18T17:45:38;8.26;79.25
66871;DHT22;53780;44.998;9.926;2022-12-18T17:48:42;8.28;79.23
66871;DHT22;53780;44.998;9.926;2022-12-18T17:51:48;8.26;79.33
66871;DHT22;53780;44.998;9.926;2022-12-18T17:54:52;8.24;79.64
66871;DHT22;53780;44.998;9.926;2022-12-18T17:57:56;8.20;79.65
66871;DHT22;53780;44.998;9.926;2022-12-18T18:01:00;8.16;79.37
66871;DHT22;53780;44.998;9.926;2022-12-18T18:04:04;8.18;79.47
66871;DHT22;53780;44.998;9.926;2022-12-18T18:07:10;8.09;79.44
66871;DHT22;53780;44.998;9.926;2022-12-18T18:10:14;7.99;79.69
66871;DHT22;53780;44.998;9.926;2022-12-18T18:13:24;7.97;80.04
66871;DHT22;53780;44.998;9.926;2022-12-18T18:16:49;7.77;80.70
66871;DHT22;53780;44.998;9.926;2022-12-18T18:19:53;7.85;80.36
66871;DHT22;53780;44.998;9.926;2022-12-18T18:22:58;7.88;80.35
66871;DHT22;53780;44.998;9.926;2022-12-18T18:26:07;7.87;80.11
66871;DHT22;53780;44.998;9.926;2022-12-18T18:29:14;7.91;80.18
66871;DHT22;53780;44.998;9.926;2022-12-18T18:32:18;7.97;80.09
66871;DHT22;53780;44.998;9.926;2022-12-18T18:35:23;7.94;80.01
66871;DHT22;53780;44.998;9.926;2022-12-18T18:38:27;8.01;79.93
66871;DHT22;53780;44.998;9.926;2022-12-18T18:41:31;8.01;79.76
66871;DHT22;53780;44.998;9.926;2022-12-18T18:44:35;8.02;79.64
66871;DHT22;53780;44.998;9.926;2022-12-18T18:47:40;8.01;79.74
66871;DHT22;53780;44.998;9.926;2022-12-18T18:50:43;8.06;79.66
66871;DHT22;53780;44.998;9.926;2022-12-18T18:53:50;8.14;79.27
66871;DHT22;53780;44.998;9.926;2022-12-18T18:56:54;8.14;78.87
66871;DHT22;53780;44.998;9.926;2022-12-18T18:59:58;8.15;78.91
66871;DHT22;53780;44.998;9.926;2022-12-18T19:03:02;8.21;78.60
66871;DHT22;53780;44.998;9.926;2022-12-18T19:06:07;8.12;78.85
66871;DHT22;53780;44.998;9.926;2022-12-18T19:09:11;8.05;79.19
66871;DHT22;53780;44.998;9.926;2022-12-18T19:12:15;7.94;79.81
66871;DHT22;53780;44.998;9.926;2022-12-18T19:15:38;8.08;79.15
66871;DHT22;53780;44.998;9.926;2022-12-18T19:18:42;8.09;79.13
66871;DHT22;53780;44.998;9.926;2022-12-18T19:21:46;8.18;79.26
66871;DHT22;53780;44.998;9.926;2022-12-18T19:24:50;8.25;79.49
66871;DHT22;53780;44.998;9.926;2022-12-18T19:27:54;8.36;79.04
66871;DHT22;53780;44.998;9.926;2022-12-18T19:30:59;8.49;78.42
66871;DHT22;53780;44.998;9.926;2022-12-18T19:34:05;8.52;78.30
66871;DHT22;53780;44.998;9.926;2022-12-18T19:37:09;8.54;76.74
66871;DHT22;53780;44.998;9.926;2022-12-18T19:40:13;8.60;76.79
66871;DHT22;53780;44.998;9.926;2022-12-18T19:43:18;8.56;76.26
66871;DHT22;53780;44.998;9.926;2022-12-18T19:46:25;8.59;76.69
66871;DHT22;53780;44.998;9.926;2022-12-18T19:49:29;8.52;76.32
66871;DHT22;53780;44.998;9.926;2022-12-18T19:52:36;8.43;75.91
66871;DHT22;53780;44.998;9.926;2022-12-18T19:55:41;8.42;75.96
66871;DHT22;53780;44.998;9.926;2022-12-18T19:58:46;8.43;76.82
66871;DHT22;53780;44.998;9.926;2022-12-18T20:01:49;8.41;77.37
66871;DHT22;53780;44.998;9.926;2022-12-18T20:04:53;8.36;77.78
66871;DHT22;53780;44.998;9.926;2022-12-18T20:07:58;8.35;78.40
66871;DHT22;53780;44.998;9.926;2022-12-18T20:11:08;8.33;76.78
66871;DHT22;53780;44.998;9.926;2022-12-18T20:14:16;8.33;76.52
66871;DHT22;53780;44.998;9.926;2022-12-18T20:17:21;8.32;77.12
66871;DHT22;53780;44.998;9.926;2022-12-18T20:20:26;8.29;77.24
66871;DHT22;53780;44.998;9.926;2022-12-18T20:23:30;8.31;77.35
66871;DHT22;53780;44.998;9.926;2022-12-18T20:26:34;8.22;76.35
66871;DHT22;53780;44.998;9.926;2022-12-18T20:29:38;8.08;76.28
66871;DHT22;53780;44.998;9.926;2022-12-18T20:32:42;8.06;76.44
66871;DHT22;53780;44.998;9.926;2022-12-18T20:35:46;8.09;76.24
66871;DHT22;53780;44.998;9.926;2022-12-18T20:38:51;8.01;76.83
66871;DHT22;53780;44.998;9.926;2022-12-18T20:41:56;7.83;76.99
66871;DHT22;53780;44.998;9.926;2022-12-18T20:45:00;7.73;77.06
66871;DHT22;53780;44.998;9.926;2022-12-18T20:48:04;7.62;77.44
66871;DHT22;53780;44.998;9.926;2022-12-18T20:51:10;7.47;77.99
66871;DHT22;53780;44.998;9.926;2022-12-18T20:54:14;7.43;78.18
66871;DHT22;53780;44.998;9.926;2022-12-18T20:57:18;7.38;78.45
66871;DHT22;53780;44.998;9.926;2022-12-18T21:00:22;7.26;78.88
66871;DHT22;53780;44.998;9.926;2022-12-18T21:03:26;7.15;78.84
66871;DHT22;53780;44.998;9.926;2022-12-18T21:06:30;7.08;78.90
66871;DHT22;53780;44.998;9.926;2022-12-18T21:09:34;6.95;77.68
66871;DHT22;53780;44.998;9.926;2022-12-18T21:12:38;6.95;77.29
66871;DHT22;53780;44.998;9.926;2022-12-18T21:15:52;6.83;77.25
66871;DHT22;53780;44.998;9.926;2022-12-18T21:18:56;6.67;77.92
66871;DHT22;53780;44.998;9.926;2022-12-18T21:22:01;6.60;78.73
66871;DHT22;53780;44.998;9.926;2022-12-18T21:25:05;6.56;78.66
66871;DHT22;53780;44.998;9.926;2022-12-18T21:28:10;6.54;78.67
66871;DHT22;53780;44.998;9.926;2022-12-18T21:31:13;6.47;79.49
66871;DHT22;53780;44.998;9.926;2022-12-18T21:34:25;6.45;80.36
66871;DHT22;53780;44.998;9.926;2022-12-18T21:37:30;6.42;80.88
66871;DHT22;53780;44.998;9.926;2022-12-18T21:40:34;6.35;81.60
66871;DHT22;53780;44.998;9.926;2022-12-18T21:43:37;6.36;81.70
66871;DHT22;53780;44.998;9.926;2022-12-18T21:47:02;6.35;82.11
66871;DHT22;53780;44.998;9.926;2022-12-18T21:50:06;6.37;82.36
66871;DHT22;53780;44.998;9.926;2022-12-18T21:53:10;6.40;81.91